Terminal Aerodrome Forecast
Issued by NWS Sterling, VA

Current Version | Previous Version | Text Only | Print | Product List | Glossary Off
Versions: 1 2 3 4 5 6 7 8 9 10 11 12 13 14 15 16 17 18 19 20 21 22

000
FTUS41 KLWX 190520
TAFIAD
TAF
KIAD 190520Z 1906/2012 24004KT P6SM OVC080
     FM191000 32005KT P6SM OVC060
     FM191400 31009KT P6SM BKN070
     FM191600 31011G19KT P6SM SCT100
     FM200000 31007KT P6SM FEW250=

USA.gov is the U.S. government's official web portal to all federal, state and local government web resources and services.